sensor_id;sensor_type;location;lat;lon;timestamp;P1;durP1;ratioP1;P2;durP2;ratioP2
9898;SDS011;4988;49.238;6.698;2022-08-24T00:02:09;4.63;;;2.70;;
9898;SDS011;4988;49.238;6.698;2022-08-24T00:04:34;4.50;;;3.00;;
9898;SDS011;4988;49.238;6.698;2022-08-24T00:07:00;4.93;;;3.20;;
9898;SDS011;4988;49.238;6.698;2022-08-24T00:09:26;8.27;;;3.00;;
9898;SDS011;4988;49.238;6.698;2022-08-24T00:11:52;4.00;;;2.90;;
9898;SDS011;4988;49.238;6.698;2022-08-24T00:14:18;6.37;;;3.17;;
9898;SDS011;4988;49.238;6.698;2022-08-24T00:16:43;4.27;;;2.87;;
9898;SDS011;4988;49.238;6.698;2022-08-24T00:19:10;5.73;;;3.00;;
9898;SDS011;4988;49.238;6.698;2022-08-24T00:21:36;4.53;;;2.83;;
9898;SDS011;4988;49.238;6.698;2022-08-24T00:24:01;6.90;;;3.00;;
9898;SDS011;4988;49.238;6.698;2022-08-24T00:26:27;4.00;;;2.97;;
9898;SDS011;4988;49.238;6.698;2022-08-24T00:28:52;3.77;;;2.63;;
9898;SDS011;4988;49.238;6.698;2022-08-24T00:31:18;7.77;;;2.80;;
9898;SDS011;4988;49.238;6.698;2022-08-24T00:33:43;6.70;;;2.90;;
9898;SDS011;4988;49.238;6.698;2022-08-24T00:36:09;5.23;;;2.90;;
9898;SDS011;4988;49.238;6.698;2022-08-24T00:38:34;3.40;;;2.57;;
9898;SDS011;4988;49.238;6.698;2022-08-24T00:41:00;4.30;;;3.20;;
9898;SDS011;4988;49.238;6.698;2022-08-24T00:43:26;6.47;;;2.93;;
9898;SDS011;4988;49.238;6.698;2022-08-24T00:48:38;7.10;;;2.80;;
9898;SDS011;4988;49.238;6.698;2022-08-24T00:51:10;4.97;;;3.20;;
9898;SDS011;4988;49.238;6.698;2022-08-24T00:53:46;9.90;;;3.00;;
9898;SDS011;4988;49.238;6.698;2022-08-24T00:56:18;6.03;;;3.10;;
9898;SDS011;4988;49.238;6.698;2022-08-24T00:58:48;5.50;;;3.07;;
9898;SDS011;4988;49.238;6.698;2022-08-24T01:01:20;5.40;;;3.07;;
9898;SDS011;4988;49.238;6.698;2022-08-24T01:03:45;5.60;;;3.10;;
9898;SDS011;4988;49.238;6.698;2022-08-24T01:06:12;7.47;;;3.03;;
9898;SDS011;4988;49.238;6.698;2022-08-24T01:08:38;5.23;;;3.03;;
9898;SDS011;4988;49.238;6.698;2022-08-24T01:11:06;8.13;;;3.03;;
9898;SDS011;4988;49.238;6.698;2022-08-24T01:13:36;7.07;;;3.20;;
9898;SDS011;4988;49.238;6.698;2022-08-24T01:16:04;6.77;;;3.43;;
9898;SDS011;4988;49.238;6.698;2022-08-24T01:18:32;4.33;;;3.00;;
9898;SDS011;4988;49.238;6.698;2022-08-24T01:21:23;5.20;;;3.50;;
9898;SDS011;4988;49.238;6.698;2022-08-24T01:23:57;5.07;;;3.43;;
9898;SDS011;4988;49.238;6.698;2022-08-24T01:26:36;6.07;;;3.27;;
9898;SDS011;4988;49.238;6.698;2022-08-24T01:29:06;5.77;;;3.40;;
9898;SDS011;4988;49.238;6.698;2022-08-24T01:31:34;6.17;;;3.50;;
9898;SDS011;4988;49.238;6.698;2022-08-24T01:34:00;4.27;;;3.27;;
9898;SDS011;4988;49.238;6.698;2022-08-24T01:36:33;8.67;;;3.23;;
9898;SDS011;4988;49.238;6.698;2022-08-24T01:39:06;5.97;;;3.50;;
9898;SDS011;4988;49.238;6.698;2022-08-24T01:41:35;4.40;;;3.00;;
9898;SDS011;4988;49.238;6.698;2022-08-24T01:44:01;9.80;;;3.57;;
9898;SDS011;4988;49.238;6.698;2022-08-24T01:46:26;5.60;;;3.30;;
9898;SDS011;4988;49.238;6.698;2022-08-24T01:48:52;6.57;;;3.40;;
9898;SDS011;4988;49.238;6.698;2022-08-24T01:51:17;5.30;;;3.50;;
9898;SDS011;4988;49.238;6.698;2022-08-24T01:53:45;8.23;;;3.20;;
9898;SDS011;4988;49.238;6.698;2022-08-24T01:56:10;6.17;;;3.30;;
9898;SDS011;4988;49.238;6.698;2022-08-24T01:58:41;6.27;;;3.00;;
9898;SDS011;4988;49.238;6.698;2022-08-24T02:01:08;4.30;;;3.30;;
9898;SDS011;4988;49.238;6.698;2022-08-24T02:03:33;5.77;;;3.23;;
9898;SDS011;4988;49.238;6.698;2022-08-24T02:05:59;5.90;;;2.80;;
9898;SDS011;4988;49.238;6.698;2022-08-24T02:08:24;7.77;;;3.30;;
9898;SDS011;4988;49.238;6.698;2022-08-24T02:10:49;3.73;;;2.90;;
9898;SDS011;4988;49.238;6.698;2022-08-24T02:13:15;4.47;;;2.90;;
9898;SDS011;4988;49.238;6.698;2022-08-24T02:15:40;5.03;;;3.10;;
9898;SDS011;4988;49.238;6.698;2022-08-24T02:18:07;6.80;;;3.20;;
9898;SDS011;4988;49.238;6.698;2022-08-24T02:20:34;5.50;;;3.47;;
9898;SDS011;4988;49.238;6.698;2022-08-24T02:23:00;5.30;;;3.00;;
9898;SDS011;4988;49.238;6.698;2022-08-24T02:25:26;6.03;;;3.40;;
9898;SDS011;4988;49.238;6.698;2022-08-24T02:27:55;4.07;;;3.00;;
9898;SDS011;4988;49.238;6.698;2022-08-24T02:30:22;5.20;;;3.17;;
9898;SDS011;4988;49.238;6.698;2022-08-24T02:32:47;6.10;;;3.60;;
9898;SDS011;4988;49.238;6.698;2022-08-24T02:35:13;5.93;;;3.17;;
9898;SDS011;4988;49.238;6.698;2022-08-24T02:37:38;4.50;;;2.93;;
9898;SDS011;4988;49.238;6.698;2022-08-24T02:40:05;5.10;;;3.13;;
9898;SDS011;4988;49.238;6.698;2022-08-24T02:42:32;6.33;;;3.37;;
9898;SDS011;4988;49.238;6.698;2022-08-24T02:44:58;6.07;;;3.33;;
9898;SDS011;4988;49.238;6.698;2022-08-24T02:47:24;5.50;;;3.10;;
9898;SDS011;4988;49.238;6.698;2022-08-24T02:49:50;4.93;;;3.00;;
9898;SDS011;4988;49.238;6.698;2022-08-24T02:52:15;6.10;;;3.43;;
9898;SDS011;4988;49.238;6.698;2022-08-24T02:54:41;5.37;;;3.00;;
9898;SDS011;4988;49.238;6.698;2022-08-24T02:57:06;5.27;;;3.10;;
9898;SDS011;4988;49.238;6.698;2022-08-24T02:59:32;5.10;;;3.40;;
9898;SDS011;4988;49.238;6.698;2022-08-24T03:01:57;4.53;;;3.13;;
9898;SDS011;4988;49.238;6.698;2022-08-24T03:04:22;4.43;;;3.10;;
9898;SDS011;4988;49.238;6.698;2022-08-24T03:06:49;5.67;;;3.40;;
9898;SDS011;4988;49.238;6.698;2022-08-24T03:09:15;4.80;;;3.20;;
9898;SDS011;4988;49.238;6.698;2022-08-24T03:11:41;4.77;;;3.60;;
9898;SDS011;4988;49.238;6.698;2022-08-24T03:14:06;5.57;;;3.00;;
9898;SDS011;4988;49.238;6.698;2022-08-24T03:16:32;6.30;;;3.20;;
9898;SDS011;4988;49.238;6.698;2022-08-24T03:18:58;4.17;;;3.40;;
9898;SDS011;4988;49.238;6.698;2022-08-24T03:21:23;5.40;;;3.10;;
9898;SDS011;4988;49.238;6.698;2022-08-24T03:23:49;6.53;;;3.40;;
9898;SDS011;4988;49.238;6.698;2022-08-24T03:26:14;5.50;;;3.30;;
9898;SDS011;4988;49.238;6.698;2022-08-24T03:28:40;4.33;;;3.40;;
9898;SDS011;4988;49.238;6.698;2022-08-24T03:31:06;5.30;;;3.50;;
9898;SDS011;4988;49.238;6.698;2022-08-24T03:33:32;6.90;;;3.57;;
9898;SDS011;4988;49.238;6.698;2022-08-24T03:35:57;7.43;;;3.70;;
9898;SDS011;4988;49.238;6.698;2022-08-24T03:38:23;7.00;;;3.77;;
9898;SDS011;4988;49.238;6.698;2022-08-24T03:40:49;7.37;;;3.87;;
9898;SDS011;4988;49.238;6.698;2022-08-24T03:43:14;6.50;;;4.00;;
9898;SDS011;4988;49.238;6.698;2022-08-24T03:45:58;7.10;;;4.10;;
9898;SDS011;4988;49.238;6.698;2022-08-24T03:48:26;4.67;;;3.33;;
9898;SDS011;4988;49.238;6.698;2022-08-24T03:50:52;7.50;;;3.83;;
9898;SDS011;4988;49.238;6.698;2022-08-24T03:53:18;4.90;;;3.40;;
9898;SDS011;4988;49.238;6.698;2022-08-24T03:55:43;5.93;;;3.67;;
9898;SDS011;4988;49.238;6.698;2022-08-24T03:58:09;8.33;;;3.80;;
9898;SDS011;4988;49.238;6.698;2022-08-24T04:00:34;5.27;;;3.40;;
9898;SDS011;4988;49.238;6.698;2022-08-24T04:03:00;7.87;;;3.63;;
9898;SDS011;4988;49.238;6.698;2022-08-24T04:05:25;8.90;;;3.67;;
9898;SDS011;4988;49.238;6.698;2022-08-24T04:07:50;4.83;;;3.30;;
9898;SDS011;4988;49.238;6.698;2022-08-24T04:10:16;5.77;;;3.60;;
9898;SDS011;4988;49.238;6.698;2022-08-24T04:12:41;6.70;;;3.30;;
9898;SDS011;4988;49.238;6.698;2022-08-24T04:15:07;5.30;;;3.70;;
9898;SDS011;4988;49.238;6.698;2022-08-24T04:17:32;6.87;;;3.40;;
9898;SDS011;4988;49.238;6.698;2022-08-24T04:19:58;9.93;;;3.87;;
9898;SDS011;4988;49.238;6.698;2022-08-24T04:22:24;7.87;;;3.50;;
9898;SDS011;4988;49.238;6.698;2022-08-24T04:24:51;6.50;;;3.40;;
9898;SDS011;4988;49.238;6.698;2022-08-24T04:27:17;6.93;;;3.07;;
9898;SDS011;4988;49.238;6.698;2022-08-24T04:29:43;6.03;;;3.50;;
9898;SDS011;4988;49.238;6.698;2022-08-24T04:32:09;5.27;;;3.27;;
9898;SDS011;4988;49.238;6.698;2022-08-24T04:34:34;6.27;;;3.43;;
9898;SDS011;4988;49.238;6.698;2022-08-24T04:37:00;4.30;;;3.47;;
9898;SDS011;4988;49.238;6.698;2022-08-24T04:39:25;5.23;;;3.37;;
9898;SDS011;4988;49.238;6.698;2022-08-24T04:41:51;4.83;;;3.50;;
9898;SDS011;4988;49.238;6.698;2022-08-24T04:44:16;5.80;;;3.43;;
9898;SDS011;4988;49.238;6.698;2022-08-24T04:46:41;4.53;;;3.50;;
9898;SDS011;4988;49.238;6.698;2022-08-24T04:49:07;5.13;;;3.33;;
9898;SDS011;4988;49.238;6.698;2022-08-24T04:51:32;4.53;;;3.13;;
9898;SDS011;4988;49.238;6.698;2022-08-24T04:53:58;4.70;;;3.37;;
9898;SDS011;4988;49.238;6.698;2022-08-24T04:56:23;4.57;;;3.17;;
9898;SDS011;4988;49.238;6.698;2022-08-24T04:58:50;5.43;;;3.30;;
9898;SDS011;4988;49.238;6.698;2022-08-24T05:01:18;8.13;;;3.60;;
9898;SDS011;4988;49.238;6.698;2022-08-24T05:03:46;8.17;;;3.57;;
9898;SDS011;4988;49.238;6.698;2022-08-24T05:06:13;5.27;;;3.50;;
9898;SDS011;4988;49.238;6.698;2022-08-24T05:08:40;5.43;;;3.67;;
9898;SDS011;4988;49.238;6.698;2022-08-24T05:11:07;9.23;;;3.47;;
9898;SDS011;4988;49.238;6.698;2022-08-24T05:13:33;7.07;;;3.60;;
9898;SDS011;4988;49.238;6.698;2022-08-24T05:16:00;5.97;;;3.50;;
9898;SDS011;4988;49.238;6.698;2022-08-24T05:18:26;5.97;;;3.80;;
9898;SDS011;4988;49.238;6.698;2022-08-24T05:20:54;8.70;;;4.20;;
9898;SDS011;4988;49.238;6.698;2022-08-24T05:23:19;7.07;;;4.13;;
9898;SDS011;4988;49.238;6.698;2022-08-24T05:25:46;6.90;;;3.50;;
9898;SDS011;4988;49.238;6.698;2022-08-24T05:28:11;4.93;;;3.60;;
9898;SDS011;4988;49.238;6.698;2022-08-24T05:30:37;5.53;;;4.00;;
9898;SDS011;4988;49.238;6.698;2022-08-24T05:33:02;7.87;;;3.93;;
9898;SDS011;4988;49.238;6.698;2022-08-24T05:35:28;5.40;;;3.93;;
9898;SDS011;4988;49.238;6.698;2022-08-24T05:37:53;6.27;;;3.90;;
9898;SDS011;4988;49.238;6.698;2022-08-24T05:40:19;8.47;;;4.10;;
9898;SDS011;4988;49.238;6.698;2022-08-24T05:42:44;7.53;;;4.40;;
9898;SDS011;4988;49.238;6.698;2022-08-24T05:45:10;5.67;;;4.20;;
9898;SDS011;4988;49.238;6.698;2022-08-24T05:47:36;5.73;;;3.90;;
9898;SDS011;4988;49.238;6.698;2022-08-24T05:50:02;5.67;;;4.10;;
9898;SDS011;4988;49.238;6.698;2022-08-24T05:52:29;9.63;;;4.03;;
9898;SDS011;4988;49.238;6.698;2022-08-24T05:54:56;7.73;;;4.00;;
9898;SDS011;4988;49.238;6.698;2022-08-24T05:57:23;7.63;;;4.77;;
9898;SDS011;4988;49.238;6.698;2022-08-24T05:59:49;8.80;;;4.67;;
9898;SDS011;4988;49.238;6.698;2022-08-24T06:02:15;7.87;;;4.40;;
9898;SDS011;4988;49.238;6.698;2022-08-24T06:04:41;6.10;;;4.30;;
9898;SDS011;4988;49.238;6.698;2022-08-24T06:07:07;6.30;;;4.30;;
9898;SDS011;4988;49.238;6.698;2022-08-24T06:09:34;8.10;;;4.80;;
9898;SDS011;4988;49.238;6.698;2022-08-24T06:12:00;9.93;;;4.47;;
9898;SDS011;4988;49.238;6.698;2022-08-24T06:14:25;9.23;;;4.50;;
9898;SDS011;4988;49.238;6.698;2022-08-24T06:16:51;9.97;;;4.77;;
9898;SDS011;4988;49.238;6.698;2022-08-24T06:19:17;7.87;;;4.57;;
9898;SDS011;4988;49.238;6.698;2022-08-24T06:21:43;7.33;;;4.40;;
9898;SDS011;4988;49.238;6.698;2022-08-24T06:24:10;8.13;;;4.07;;
9898;SDS011;4988;49.238;6.698;2022-08-24T06:26:36;9.03;;;5.10;;
9898;SDS011;4988;49.238;6.698;2022-08-24T06:29:20;12.80;;;4.03;;
9898;SDS011;4988;49.238;6.698;2022-08-24T06:31:47;8.43;;;4.53;;
9898;SDS011;4988;49.238;6.698;2022-08-24T06:34:14;7.53;;;4.37;;
9898;SDS011;4988;49.238;6.698;2022-08-24T06:36:40;7.93;;;4.07;;
9898;SDS011;4988;49.238;6.698;2022-08-24T06:39:06;11.93;;;5.33;;
9898;SDS011;4988;49.238;6.698;2022-08-24T06:41:33;9.13;;;5.33;;
9898;SDS011;4988;49.238;6.698;2022-08-24T06:43:58;11.10;;;5.10;;
9898;SDS011;4988;49.238;6.698;2022-08-24T06:46:24;10.17;;;5.63;;
9898;SDS011;4988;49.238;6.698;2022-08-24T06:48:49;12.80;;;5.20;;
9898;SDS011;4988;49.238;6.698;2022-08-24T06:51:16;7.20;;;4.73;;
9898;SDS011;4988;49.238;6.698;2022-08-24T06:53:43;10.60;;;5.20;;
9898;SDS011;4988;49.238;6.698;2022-08-24T06:56:09;9.97;;;4.90;;
9898;SDS011;4988;49.238;6.698;2022-08-24T06:58:36;9.67;;;4.30;;
9898;SDS011;4988;49.238;6.698;2022-08-24T07:01:11;14.53;;;4.70;;
9898;SDS011;4988;49.238;6.698;2022-08-24T07:03:39;12.43;;;5.40;;
9898;SDS011;4988;49.238;6.698;2022-08-24T07:06:05;8.93;;;4.77;;
9898;SDS011;4988;49.238;6.698;2022-08-24T07:08:31;10.73;;;4.93;;
9898;SDS011;4988;49.238;6.698;2022-08-24T07:10:57;10.17;;;4.87;;
9898;SDS011;4988;49.238;6.698;2022-08-24T07:13:23;13.57;;;5.93;;
9898;SDS011;4988;49.238;6.698;2022-08-24T07:15:49;15.37;;;5.93;;
9898;SDS011;4988;49.238;6.698;2022-08-24T07:18:16;19.43;;;6.70;;
9898;SDS011;4988;49.238;6.698;2022-08-24T07:20:44;16.23;;;5.83;;
9898;SDS011;4988;49.238;6.698;2022-08-24T07:23:10;20.17;;;6.13;;
9898;SDS011;4988;49.238;6.698;2022-08-24T07:25:38;18.23;;;6.23;;
9898;SDS011;4988;49.238;6.698;2022-08-24T07:28:04;26.13;;;6.07;;
9898;SDS011;4988;49.238;6.698;2022-08-24T07:30:29;18.23;;;6.17;;
9898;SDS011;4988;49.238;6.698;2022-08-24T07:32:55;18.13;;;6.47;;
9898;SDS011;4988;49.238;6.698;2022-08-24T07:35:21;23.87;;;6.60;;
9898;SDS011;4988;49.238;6.698;2022-08-24T07:37:48;24.20;;;6.60;;
9898;SDS011;4988;49.238;6.698;2022-08-24T07:40:14;19.77;;;6.90;;
9898;SDS011;4988;49.238;6.698;2022-08-24T07:42:40;22.80;;;7.10;;
9898;SDS011;4988;49.238;6.698;2022-08-24T07:45:06;23.93;;;6.80;;
9898;SDS011;4988;49.238;6.698;2022-08-24T07:47:31;18.10;;;6.40;;
9898;SDS011;4988;49.238;6.698;2022-08-24T07:49:57;18.77;;;6.20;;
9898;SDS011;4988;49.238;6.698;2022-08-24T07:52:22;21.83;;;6.33;;
9898;SDS011;4988;49.238;6.698;2022-08-24T07:54:48;15.33;;;6.37;;
9898;SDS011;4988;49.238;6.698;2022-08-24T07:57:13;20.43;;;6.13;;
9898;SDS011;4988;49.238;6.698;2022-08-24T07:59:39;16.73;;;6.27;;
9898;SDS011;4988;49.238;6.698;2022-08-24T08:02:05;17.47;;;6.03;;
9898;SDS011;4988;49.238;6.698;2022-08-24T08:04:32;16.50;;;5.90;;
9898;SDS011;4988;49.238;6.698;2022-08-24T08:06:58;19.10;;;5.73;;
9898;SDS011;4988;49.238;6.698;2022-08-24T08:09:25;12.73;;;5.50;;
9898;SDS011;4988;49.238;6.698;2022-08-24T08:11:51;15.07;;;6.07;;
9898;SDS011;4988;49.238;6.698;2022-08-24T08:14:16;13.60;;;5.50;;
9898;SDS011;4988;49.238;6.698;2022-08-24T08:16:41;14.23;;;5.23;;
9898;SDS011;4988;49.238;6.698;2022-08-24T08:19:07;12.70;;;5.53;;
9898;SDS011;4988;49.238;6.698;2022-08-24T08:21:32;18.23;;;5.37;;
9898;SDS011;4988;49.238;6.698;2022-08-24T08:24:16;13.93;;;5.67;;
9898;SDS011;4988;49.238;6.698;2022-08-24T08:26:42;14.30;;;5.53;;
9898;SDS011;4988;49.238;6.698;2022-08-24T08:29:09;19.73;;;5.80;;
9898;SDS011;4988;49.238;6.698;2022-08-24T08:31:37;14.10;;;5.73;;
9898;SDS011;4988;49.238;6.698;2022-08-24T08:34:02;15.37;;;5.27;;
9898;SDS011;4988;49.238;6.698;2022-08-24T08:36:28;12.83;;;4.80;;
9898;SDS011;4988;49.238;6.698;2022-08-24T08:38:55;10.03;;;4.67;;
9898;SDS011;4988;49.238;6.698;2022-08-24T08:44:02;10.47;;;4.87;;
9898;SDS011;4988;49.238;6.698;2022-08-24T08:49:41;14.80;;;4.53;;
9898;SDS011;4988;49.238;6.698;2022-08-24T08:52:30;10.83;;;4.33;;
9898;SDS011;4988;49.238;6.698;2022-08-24T08:57:57;7.33;;;4.03;;
9898;SDS011;4988;49.238;6.698;2022-08-24T09:00:40;15.17;;;4.47;;
9898;SDS011;4988;49.238;6.698;2022-08-24T09:06:22;6.67;;;3.80;;
9898;SDS011;4988;49.238;6.698;2022-08-24T09:09:09;12.03;;;4.30;;
9898;SDS011;4988;49.238;6.698;2022-08-24T09:29:14;8.53;;;4.10;;
9898;SDS011;4988;49.238;6.698;2022-08-24T09:32:00;7.17;;;3.70;;
9898;SDS011;4988;49.238;6.698;2022-08-24T09:34:47;8.60;;;3.60;;
9898;SDS011;4988;49.238;6.698;2022-08-24T09:40:00;7.30;;;3.50;;
9898;SDS011;4988;49.238;6.698;2022-08-24T09:53:28;7.43;;;3.57;;
9898;SDS011;4988;49.238;6.698;2022-08-24T09:56:00;9.10;;;3.40;;
9898;SDS011;4988;49.238;6.698;2022-08-24T10:06:27;7.07;;;3.43;;
9898;SDS011;4988;49.238;6.698;2022-08-24T10:09:10;8.97;;;3.30;;
9898;SDS011;4988;49.238;6.698;2022-08-24T10:17:49;4.33;;;2.73;;
9898;SDS011;4988;49.238;6.698;2022-08-24T10:20:46;7.00;;;2.80;;
9898;SDS011;4988;49.238;6.698;2022-08-24T10:29:21;6.53;;;2.90;;
9898;SDS011;4988;49.238;6.698;2022-08-24T10:32:17;9.33;;;3.60;;
9898;SDS011;4988;49.238;6.698;2022-08-24T10:45:41;4.63;;;3.03;;
9898;SDS011;4988;49.238;6.698;2022-08-24T10:51:03;6.47;;;3.70;;
9898;SDS011;4988;49.238;6.698;2022-08-24T10:53:51;7.23;;;3.20;;
9898;SDS011;4988;49.238;6.698;2022-08-24T10:56:18;6.80;;;2.77;;
9898;SDS011;4988;49.238;6.698;2022-08-24T10:58:55;5.43;;;2.80;;
9898;SDS011;4988;49.238;6.698;2022-08-24T11:01:39;5.73;;;2.90;;
9898;SDS011;4988;49.238;6.698;2022-08-24T11:04:31;6.63;;;3.10;;
9898;SDS011;4988;49.238;6.698;2022-08-24T11:07:16;4.30;;;2.87;;
9898;SDS011;4988;49.238;6.698;2022-08-24T11:09:48;6.17;;;3.60;;
9898;SDS011;4988;49.238;6.698;2022-08-24T11:12:28;7.93;;;3.30;;
9898;SDS011;4988;49.238;6.698;2022-08-24T11:15:04;8.90;;;3.50;;
9898;SDS011;4988;49.238;6.698;2022-08-24T11:17:56;6.67;;;4.20;;
9898;SDS011;4988;49.238;6.698;2022-08-24T11:20:28;5.73;;;3.50;;
9898;SDS011;4988;49.238;6.698;2022-08-24T11:23:06;5.20;;;2.97;;
9898;SDS011;4988;49.238;6.698;2022-08-24T11:25:39;4.23;;;3.10;;
9898;SDS011;4988;49.238;6.698;2022-08-24T11:30:57;8.13;;;3.43;;
9898;SDS011;4988;49.238;6.698;2022-08-24T11:35:55;5.00;;;3.17;;
9898;SDS011;4988;49.238;6.698;2022-08-24T11:38:22;4.77;;;3.40;;
9898;SDS011;4988;49.238;6.698;2022-08-24T11:41:06;5.33;;;3.27;;
9898;SDS011;4988;49.238;6.698;2022-08-24T11:43:46;5.40;;;2.73;;
9898;SDS011;4988;49.238;6.698;2022-08-24T11:49:14;3.87;;;2.87;;
9898;SDS011;4988;49.238;6.698;2022-08-24T11:51:45;6.40;;;2.97;;
9898;SDS011;4988;49.238;6.698;2022-08-24T11:59:44;7.13;;;2.80;;
9898;SDS011;4988;49.238;6.698;2022-08-24T12:02:38;4.07;;;3.00;;
9898;SDS011;4988;49.238;6.698;2022-08-24T12:11:12;6.00;;;2.83;;
9898;SDS011;4988;49.238;6.698;2022-08-24T12:16:56;6.23;;;2.57;;
9898;SDS011;4988;49.238;6.698;2022-08-24T12:19:49;5.30;;;2.87;;
9898;SDS011;4988;49.238;6.698;2022-08-24T12:22:19;4.73;;;2.80;;
9898;SDS011;4988;49.238;6.698;2022-08-24T12:24:53;3.40;;;2.67;;
9898;SDS011;4988;49.238;6.698;2022-08-24T12:27:29;6.27;;;2.60;;
9898;SDS011;4988;49.238;6.698;2022-08-24T12:30:10;4.57;;;2.50;;
9898;SDS011;4988;49.238;6.698;2022-08-24T12:32:43;6.37;;;2.70;;
9898;SDS011;4988;49.238;6.698;2022-08-24T12:38:01;6.83;;;3.57;;
9898;SDS011;4988;49.238;6.698;2022-08-24T12:40:43;5.20;;;3.20;;
9898;SDS011;4988;49.238;6.698;2022-08-24T12:46:02;4.83;;;2.60;;
9898;SDS011;4988;49.238;6.698;2022-08-24T12:59:28;5.13;;;2.63;;
9898;SDS011;4988;49.238;6.698;2022-08-24T13:02:53;8.57;;;3.00;;
9898;SDS011;4988;49.238;6.698;2022-08-24T13:09:47;5.10;;;2.50;;
9898;SDS011;4988;49.238;6.698;2022-08-24T13:17:44;5.50;;;2.70;;
9898;SDS011;4988;49.238;6.698;2022-08-24T13:20:20;6.10;;;2.90;;
9898;SDS011;4988;49.238;6.698;2022-08-24T13:33:34;18.87;;;2.70;;
9898;SDS011;4988;49.238;6.698;2022-08-24T13:38:53;2.90;;;2.60;;
9898;SDS011;4988;49.238;6.698;2022-08-24T13:49:27;6.00;;;2.70;;
9898;SDS011;4988;49.238;6.698;2022-08-24T14:00:36;4.50;;;2.73;;
9898;SDS011;4988;49.238;6.698;2022-08-24T14:11:09;3.87;;;2.90;;
9898;SDS011;4988;49.238;6.698;2022-08-24T14:13:45;4.00;;;2.97;;
9898;SDS011;4988;49.238;6.698;2022-08-24T14:27:43;5.57;;;2.60;;
9898;SDS011;4988;49.238;6.698;2022-08-24T14:33:07;7.33;;;2.50;;
9898;SDS011;4988;49.238;6.698;2022-08-24T14:46:50;6.53;;;3.10;;
9898;SDS011;4988;49.238;6.698;2022-08-24T15:00:32;5.17;;;3.00;;
9898;SDS011;4988;49.238;6.698;2022-08-24T15:03:17;6.40;;;3.43;;
9898;SDS011;4988;49.238;6.698;2022-08-24T15:06:08;4.37;;;3.03;;
9898;SDS011;4988;49.238;6.698;2022-08-24T15:08:44;9.50;;;2.93;;
9898;SDS011;4988;49.238;6.698;2022-08-24T15:11:12;6.40;;;2.90;;
9898;SDS011;4988;49.238;6.698;2022-08-24T15:21:53;5.80;;;2.70;;
9898;SDS011;4988;49.238;6.698;2022-08-24T15:26:55;4.47;;;2.90;;
9898;SDS011;4988;49.238;6.698;2022-08-24T15:29:45;6.10;;;3.00;;
9898;SDS011;4988;49.238;6.698;2022-08-24T15:32:14;3.43;;;2.60;;
9898;SDS011;4988;49.238;6.698;2022-08-24T15:34:45;5.07;;;2.63;;
9898;SDS011;4988;49.238;6.698;2022-08-24T15:37:35;5.90;;;2.60;;
9898;SDS011;4988;49.238;6.698;2022-08-24T15:40:17;4.13;;;2.53;;
9898;SDS011;4988;49.238;6.698;2022-08-24T15:42:59;4.03;;;2.97;;
9898;SDS011;4988;49.238;6.698;2022-08-24T15:45:27;4.20;;;2.60;;
9898;SDS011;4988;49.238;6.698;2022-08-24T15:47:53;3.87;;;2.53;;
9898;SDS011;4988;49.238;6.698;2022-08-24T15:50:28;6.53;;;3.17;;
9898;SDS011;4988;49.238;6.698;2022-08-24T15:53:01;3.40;;;2.60;;
9898;SDS011;4988;49.238;6.698;2022-08-24T15:55:34;5.17;;;2.87;;
9898;SDS011;4988;49.238;6.698;2022-08-24T15:58:20;3.93;;;2.50;;
9898;SDS011;4988;49.238;6.698;2022-08-24T16:03:54;4.43;;;2.70;;
9898;SDS011;4988;49.238;6.698;2022-08-24T16:06:22;4.43;;;2.70;;
9898;SDS011;4988;49.238;6.698;2022-08-24T16:11:28;6.87;;;2.70;;
9898;SDS011;4988;49.238;6.698;2022-08-24T16:13:59;6.00;;;2.83;;
9898;SDS011;4988;49.238;6.698;2022-08-24T16:16:30;3.40;;;2.67;;
9898;SDS011;4988;49.238;6.698;2022-08-24T16:18:59;5.57;;;2.70;;
9898;SDS011;4988;49.238;6.698;2022-08-24T16:24:04;4.13;;;2.70;;
9898;SDS011;4988;49.238;6.698;2022-08-24T16:29:09;5.07;;;2.77;;
9898;SDS011;4988;49.238;6.698;2022-08-24T16:32:16;5.40;;;2.80;;
9898;SDS011;4988;49.238;6.698;2022-08-24T16:34:47;3.57;;;2.70;;
9898;SDS011;4988;49.238;6.698;2022-08-24T16:37:18;5.67;;;2.80;;
9898;SDS011;4988;49.238;6.698;2022-08-24T16:39:45;6.33;;;2.67;;
9898;SDS011;4988;49.238;6.698;2022-08-24T16:42:15;3.63;;;2.53;;
9898;SDS011;4988;49.238;6.698;2022-08-24T16:44:45;8.93;;;3.03;;
9898;SDS011;4988;49.238;6.698;2022-08-24T16:47:10;6.10;;;2.80;;
9898;SDS011;4988;49.238;6.698;2022-08-24T16:49:36;4.60;;;2.77;;
9898;SDS011;4988;49.238;6.698;2022-08-24T16:52:04;5.27;;;2.87;;
9898;SDS011;4988;49.238;6.698;2022-08-24T16:54:30;4.13;;;2.93;;
9898;SDS011;4988;49.238;6.698;2022-08-24T16:56:57;5.43;;;2.50;;
9898;SDS011;4988;49.238;6.698;2022-08-24T16:59:29;4.37;;;2.70;;
9898;SDS011;4988;49.238;6.698;2022-08-24T17:01:56;7.60;;;2.60;;
9898;SDS011;4988;49.238;6.698;2022-08-24T17:04:22;6.43;;;2.60;;
9898;SDS011;4988;49.238;6.698;2022-08-24T17:06:47;3.77;;;2.33;;
9898;SDS011;4988;49.238;6.698;2022-08-24T17:09:13;6.67;;;2.57;;
9898;SDS011;4988;49.238;6.698;2022-08-24T17:11:40;5.60;;;2.70;;
9898;SDS011;4988;49.238;6.698;2022-08-24T17:14:06;4.20;;;2.30;;
9898;SDS011;4988;49.238;6.698;2022-08-24T17:16:32;7.13;;;2.77;;
9898;SDS011;4988;49.238;6.698;2022-08-24T17:18:57;5.20;;;2.83;;
9898;SDS011;4988;49.238;6.698;2022-08-24T17:21:23;5.80;;;2.50;;
9898;SDS011;4988;49.238;6.698;2022-08-24T17:23:50;4.13;;;2.70;;
9898;SDS011;4988;49.238;6.698;2022-08-24T17:26:16;4.27;;;2.90;;
9898;SDS011;4988;49.238;6.698;2022-08-24T17:28:43;4.60;;;3.17;;
9898;SDS011;4988;49.238;6.698;2022-08-24T17:31:11;4.00;;;2.97;;
9898;SDS011;4988;49.238;6.698;2022-08-24T17:33:37;4.70;;;2.70;;
9898;SDS011;4988;49.238;6.698;2022-08-24T17:36:03;4.07;;;3.10;;
9898;SDS011;4988;49.238;6.698;2022-08-24T17:38:29;5.10;;;2.70;;
9898;SDS011;4988;49.238;6.698;2022-08-24T17:40:56;5.13;;;2.90;;
9898;SDS011;4988;49.238;6.698;2022-08-24T17:43:21;5.77;;;2.83;;
9898;SDS011;4988;49.238;6.698;2022-08-24T17:45:48;4.30;;;2.50;;
9898;SDS011;4988;49.238;6.698;2022-08-24T17:48:16;4.57;;;3.20;;
9898;SDS011;4988;49.238;6.698;2022-08-24T17:50:47;7.00;;;2.90;;
9898;SDS011;4988;49.238;6.698;2022-08-24T17:53:13;4.03;;;2.70;;
9898;SDS011;4988;49.238;6.698;2022-08-24T17:55:38;5.37;;;2.63;;
9898;SDS011;4988;49.238;6.698;2022-08-24T17:58:03;5.80;;;2.87;;
9898;SDS011;4988;49.238;6.698;2022-08-24T18:00:29;7.23;;;2.90;;
9898;SDS011;4988;49.238;6.698;2022-08-24T18:02:54;5.33;;;3.10;;
9898;SDS011;4988;49.238;6.698;2022-08-24T18:05:19;3.93;;;2.70;;
9898;SDS011;4988;49.238;6.698;2022-08-24T18:07:47;6.10;;;2.80;;
9898;SDS011;4988;49.238;6.698;2022-08-24T18:10:16;6.30;;;2.80;;
9898;SDS011;4988;49.238;6.698;2022-08-24T18:12:44;4.60;;;2.90;;
9898;SDS011;4988;49.238;6.698;2022-08-24T18:15:10;6.00;;;2.60;;
9898;SDS011;4988;49.238;6.698;2022-08-24T18:17:37;3.73;;;2.77;;
9898;SDS011;4988;49.238;6.698;2022-08-24T18:20:05;4.03;;;2.63;;
9898;SDS011;4988;49.238;6.698;2022-08-24T18:22:33;4.80;;;2.90;;
9898;SDS011;4988;49.238;6.698;2022-08-24T18:24:59;4.87;;;2.70;;
9898;SDS011;4988;49.238;6.698;2022-08-24T18:27:26;6.83;;;2.73;;
9898;SDS011;4988;49.238;6.698;2022-08-24T18:29:55;3.33;;;2.73;;
9898;SDS011;4988;49.238;6.698;2022-08-24T18:32:25;5.47;;;2.83;;
9898;SDS011;4988;49.238;6.698;2022-08-24T18:34:50;3.70;;;2.70;;
9898;SDS011;4988;49.238;6.698;2022-08-24T18:37:15;4.93;;;2.77;;
9898;SDS011;4988;49.238;6.698;2022-08-24T18:39:41;21.53;;;3.33;;
9898;SDS011;4988;49.238;6.698;2022-08-24T18:42:07;14.63;;;3.37;;
9898;SDS011;4988;49.238;6.698;2022-08-24T18:44:33;8.00;;;3.10;;
9898;SDS011;4988;49.238;6.698;2022-08-24T18:47:00;4.27;;;2.83;;
9898;SDS011;4988;49.238;6.698;2022-08-24T18:49:25;4.33;;;3.20;;
9898;SDS011;4988;49.238;6.698;2022-08-24T18:51:51;7.63;;;3.30;;
9898;SDS011;4988;49.238;6.698;2022-08-24T18:54:17;5.53;;;3.07;;
9898;SDS011;4988;49.238;6.698;2022-08-24T18:56:46;6.57;;;3.13;;
9898;SDS011;4988;49.238;6.698;2022-08-24T18:59:12;5.10;;;2.93;;
9898;SDS011;4988;49.238;6.698;2022-08-24T19:01:42;6.87;;;3.47;;
9898;SDS011;4988;49.238;6.698;2022-08-24T19:04:28;4.50;;;3.33;;
9898;SDS011;4988;49.238;6.698;2022-08-24T19:06:54;6.40;;;3.90;;
9898;SDS011;4988;49.238;6.698;2022-08-24T19:09:20;7.00;;;4.30;;
9898;SDS011;4988;49.238;6.698;2022-08-24T19:11:45;8.47;;;4.00;;